Time;durP1;ratioP1;P1;durP2;ratioP2;P2;SDS_P1;SDS_P2;PMS_P1;PMS_P2;Temp;Humidity;BMP_temperature;BMP_pressure;BME280_temperature;BME280_humidity;BME280_pressure;Samples;Min_cycle;Max_cycle;Signal;HPM_P1;HPM_P2
2023/04/13 00:00:35;;;;;;;6.83;5.80;;;;;;;;;;5044487;28;20239;-52
2023/04/13 00:03:02;;;;;;;5.57;5.07;;;;;;;;;;5047695;28;20821;-52
2023/04/13 00:05:29;;;;;;;5.70;5.20;;;;;;;;;;5046351;28;20640;-52
2023/04/13 00:07:56;;;;;;;7.73;5.77;;;;;;;;;;5045710;28;20319;-54
2023/04/13 00:10:24;;;;;;;6.20;5.13;;;;;;;;;;5048274;28;20345;-51
2023/04/13 00:12:50;;;;;;;6.50;5.37;;;;;;;;;;5031159;28;20252;-51
2023/04/13 00:15:18;;;;;;;5.57;5.07;;;;;;;;;;5046867;28;20235;-52
2023/04/13 00:17:46;;;;;;;6.33;5.73;;;;;;;;;;5028323;28;20244;-51
2023/04/13 00:20:14;;;;;;;5.97;5.47;;;;;;;;;;5025705;28;20252;-50
2023/04/13 00:22:41;;;;;;;6.73;6.10;;;;;;;;;;5024729;28;20252;-51
2023/04/13 00:25:08;;;;;;;6.83;6.20;;;;;;;;;;5017839;28;20286;-51
2023/04/13 00:27:36;;;;;;;6.67;6.00;;;;;;;;;;5013944;28;20304;-51
2023/04/13 00:30:03;;;;;;;5.83;5.33;;;;;;;;;;5017976;28;20240;-51
2023/04/13 00:32:30;;;;;;;7.97;7.07;;;;;;;;;;5016367;28;20235;-50
2023/04/13 00:34:58;;;;;;;6.33;5.73;;;;;;;;;;5025984;28;20229;-52
2023/04/13 00:37:28;;;;;;;6.50;5.87;;;;;;;;;;5022837;28;20255;-52
2023/04/13 00:39:55;;;;;;;7.73;5.30;;;;;;;;;;5006352;28;21046;-51
2023/04/13 00:42:21;;;;;;;5.97;5.47;;;;;;;;;;5015567;28;20291;-51
2023/04/13 00:44:48;;;;;;;5.77;5.17;;;;;;;;;;5015951;28;20233;-51
2023/04/13 00:47:16;;;;;;;7.67;6.20;;;;;;;;;;5023441;28;20232;-50
2023/04/13 00:49:43;;;;;;;7.17;6.47;;;;;;;;;;5028021;28;20224;-51
2023/04/13 00:52:12;;;;;;;9.17;7.03;;;;;;;;;;5040393;28;20234;-51
2023/04/13 00:54:39;;;;;;;7.57;6.77;;;;;;;;;;5034584;28;20322;-53
2023/04/13 00:57:07;;;;;;;10.37;6.90;;;;;;;;;;5041737;28;20274;-51
2023/04/13 00:59:36;;;;;;;8.87;7.97;;;;;;;;;;5042178;28;20238;-51
2023/04/13 01:02:04;;;;;;;9.77;7.07;;;;;;;;;;5041669;28;20236;-50
2023/04/13 01:04:31;;;;;;;8.47;7.53;;;;;;;;;;5044176;28;20223;-54
2023/04/13 01:07:03;;;;;;;8.63;7.77;;;;;;;;;;5039681;28;20232;-52
2023/04/13 01:09:35;;;;;;;10.37;7.73;;;;;;;;;;5042624;28;20232;-52
2023/04/13 01:12:04;;;;;;;9.53;8.63;;;;;;;;;;5046466;28;20228;-56
2023/04/13 01:14:33;;;;;;;7.77;6.97;;;;;;;;;;5042153;28;20232;-51
2023/04/13 01:17:02;;;;;;;9.17;8.27;;;;;;;;;;5042914;28;20231;-51
2023/04/13 01:19:36;;;;;;;8.40;7.60;;;;;;;;;;5041555;28;20327;-52
2023/04/13 01:22:07;;;;;;;8.40;7.60;;;;;;;;;;4994876;28;1207814;-55
2023/04/13 01:24:40;;;;;;;8.27;7.47;;;;;;;;;;5043010;28;20235;-52
2023/04/13 01:27:11;;;;;;;7.83;7.03;;;;;;;;;;5040744;28;20240;-51
2023/04/13 01:29:40;;;;;;;8.00;7.30;;;;;;;;;;5043884;28;20829;-52
2023/04/13 01:32:07;;;;;;;7.80;6.97;;;;;;;;;;5039974;28;20735;-52
2023/04/13 01:34:34;;;;;;;7.30;6.70;;;;;;;;;;5035738;28;20726;-52
2023/04/13 01:37:03;;;;;;;9.23;7.00;;;;;;;;;;5039752;28;20227;-53
2023/04/13 01:39:32;;;;;;;7.83;7.10;;;;;;;;;;5036549;28;20267;-51
2023/04/13 01:41:59;;;;;;;8.57;7.67;;;;;;;;;;5041387;28;20937;-52
2023/04/13 01:44:26;;;;;;;7.50;6.90;;;;;;;;;;5034464;28;20665;-53
2023/04/13 01:46:56;;;;;;;7.20;6.57;;;;;;;;;;5036355;28;20766;-52
2023/04/13 01:49:23;;;;;;;7.57;6.80;;;;;;;;;;5034231;28;20324;-52
2023/04/13 01:51:52;;;;;;;8.50;7.53;;;;;;;;;;5037866;28;20251;-52
2023/04/13 01:54:20;;;;;;;7.87;7.10;;;;;;;;;;5043864;28;20232;-54
2023/04/13 01:56:47;;;;;;;7.90;7.20;;;;;;;;;;5035831;28;20596;-52
2023/04/13 01:59:15;;;;;;;8.80;7.90;;;;;;;;;;5039834;28;20302;-52
2023/04/13 02:01:42;;;;;;;9.00;8.10;;;;;;;;;;5040697;28;20223;-53
2023/04/13 02:04:10;;;;;;;9.30;8.40;;;;;;;;;;5030522;28;20237;-53
2023/04/13 02:06:39;;;;;;;8.23;7.43;;;;;;;;;;5042311;28;20240;-52
2023/04/13 02:09:06;;;;;;;7.87;7.07;;;;;;;;;;5042464;28;20754;-54
2023/04/13 02:11:33;;;;;;;8.13;7.23;;;;;;;;;;5042669;28;20319;-51
2023/04/13 02:13:59;;;;;;;9.90;6.70;;;;;;;;;;5043452;28;20812;-51
2023/04/13 02:16:27;;;;;;;6.70;6.10;;;;;;;;;;5036705;28;20639;-52
2023/04/13 02:18:53;;;;;;;7.57;6.50;;;;;;;;;;5038600;28;20258;-53
2023/04/13 02:21:21;;;;;;;6.90;6.30;;;;;;;;;;5032694;28;20256;-51
2023/04/13 02:23:48;;;;;;;7.00;6.30;;;;;;;;;;5038300;28;20329;-52
2023/04/13 02:26:15;;;;;;;6.57;5.93;;;;;;;;;;5043960;28;20232;-52
2023/04/13 02:28:41;;;;;;;9.17;6.43;;;;;;;;;;5042993;28;20777;-52
2023/04/13 02:31:08;;;;;;;7.00;5.77;;;;;;;;;;5043076;28;20801;-52
2023/04/13 02:33:35;;;;;;;6.63;5.77;;;;;;;;;;5037574;28;20315;-51
2023/04/13 02:36:02;;;;;;;6.33;5.30;;;;;;;;;;5043595;28;20661;-52
2023/04/13 02:38:30;;;;;;;8.73;5.43;;;;;;;;;;5034977;28;20224;-52
2023/04/13 02:40:58;;;;;;;9.47;5.47;;;;;;;;;;5037883;28;20239;-53
2023/04/13 02:43:25;;;;;;;6.97;5.13;;;;;;;;;;5039107;28;20236;-53
2023/04/13 02:45:52;;;;;;;7.33;5.60;;;;;;;;;;5041433;28;20248;-53
2023/04/13 02:48:19;;;;;;;6.17;5.00;;;;;;;;;;5037755;28;20231;-52
2023/04/13 02:50:46;;;;;;;7.73;4.77;;;;;;;;;;5038236;28;20323;-52
2023/04/13 02:53:12;;;;;;;7.73;5.20;;;;;;;;;;5043636;28;20314;-53
2023/04/13 02:55:40;;;;;;;6.70;5.37;;;;;;;;;;5043465;28;20231;-53
2023/04/13 02:58:08;;;;;;;6.87;5.37;;;;;;;;;;5037899;28;20242;-52
2023/04/13 03:00:34;;;;;;;8.43;6.03;;;;;;;;;;5042512;28;20319;-52
2023/04/13 03:03:02;;;;;;;5.70;4.73;;;;;;;;;;5040826;28;20228;-53
2023/04/13 03:05:30;;;;;;;7.93;5.10;;;;;;;;;;5037300;28;20733;-53
2023/04/13 03:07:57;;;;;;;9.63;5.50;;;;;;;;;;5041701;28;20231;-52
2023/04/13 03:10:24;;;;;;;7.17;5.43;;;;;;;;;;5040193;28;20243;-52
2023/04/13 03:12:52;;;;;;;8.20;5.63;;;;;;;;;;5039913;28;20816;-52
2023/04/13 03:15:19;;;;;;;7.57;5.50;;;;;;;;;;5036183;28;20250;-53
2023/04/13 03:17:45;;;;;;;5.57;5.07;;;;;;;;;;5032303;28;20238;-53
2023/04/13 03:20:14;;;;;;;5.27;4.67;;;;;;;;;;5042510;28;20235;-52
2023/04/13 03:22:42;;;;;;;7.77;4.77;;;;;;;;;;5037124;28;20227;-52
2023/04/13 03:25:08;;;;;;;5.57;4.97;;;;;;;;;;5033552;28;20236;-51
2023/04/13 03:27:36;;;;;;;7.63;4.50;;;;;;;;;;5032521;28;20240;-54
2023/04/13 03:30:04;;;;;;;5.77;4.53;;;;;;;;;;5038180;28;20669;-53
2023/04/13 03:32:31;;;;;;;6.73;4.77;;;;;;;;;;5038459;28;20277;-50
2023/04/13 03:34:58;;;;;;;7.47;4.70;;;;;;;;;;5048295;28;20239;-51
2023/04/13 03:37:28;;;;;;;4.73;4.03;;;;;;;;;;5045217;28;20236;-53
2023/04/13 03:39:55;;;;;;;5.00;4.23;;;;;;;;;;5037290;28;20235;-51
2023/04/13 03:42:22;;;;;;;5.40;3.90;;;;;;;;;;5035283;28;20301;-52
2023/04/13 03:44:48;;;;;;;7.57;5.10;;;;;;;;;;5036237;28;20251;-51
2023/04/13 03:47:16;;;;;;;5.53;4.03;;;;;;;;;;5041205;28;20242;-51
2023/04/13 03:49:43;;;;;;;5.47;4.13;;;;;;;;;;5041228;28;20246;-54
2023/04/13 03:52:10;;;;;;;5.37;3.80;;;;;;;;;;5042104;28;20223;-53
2023/04/13 03:54:36;;;;;;;7.43;4.53;;;;;;;;;;5040564;28;20236;-53
2023/04/13 03:57:03;;;;;;;7.47;4.67;;;;;;;;;;5040444;28;20324;-50
2023/04/13 03:59:30;;;;;;;6.80;4.67;;;;;;;;;;5029717;28;20237;-52
2023/04/13 04:01:57;;;;;;;6.60;3.60;;;;;;;;;;5040322;28;21355;-53
2023/04/13 04:04:25;;;;;;;4.03;3.73;;;;;;;;;;5040484;28;20239;-53
2023/04/13 04:06:52;;;;;;;4.27;3.87;;;;;;;;;;5040594;28;20224;-53
2023/04/13 04:09:19;;;;;;;5.97;4.73;;;;;;;;;;5040567;28;20252;-51
2023/04/13 04:11:45;;;;;;;6.57;3.43;;;;;;;;;;5040334;28;20231;-52
2023/04/13 04:14:12;;;;;;;7.37;4.17;;;;;;;;;;5042789;28;20228;-53
2023/04/13 04:16:39;;;;;;;4.63;3.00;;;;;;;;;;5049862;28;20318;-53
2023/04/13 04:19:05;;;;;;;4.50;3.90;;;;;;;;;;5041399;28;20232;-53
2023/04/13 04:21:34;;;;;;;5.77;3.67;;;;;;;;;;5043844;28;20606;-52
2023/04/13 04:24:01;;;;;;;6.13;3.80;;;;;;;;;;5035186;28;20290;-51
2023/04/13 04:26:28;;;;;;;4.97;3.60;;;;;;;;;;5041343;28;20240;-54
2023/04/13 04:29:00;;;;;;;5.13;3.33;;;;;;;;;;5040824;28;20248;-53
2023/04/13 04:31:30;;;;;;;5.97;4.93;;;;;;;;;;5044685;28;20235;-51
2023/04/13 04:33:57;;;;;;;5.83;3.83;;;;;;;;;;5041786;28;20236;-52
2023/04/13 04:36:25;;;;;;;7.03;3.83;;;;;;;;;;5034380;28;20819;-51
2023/04/13 04:38:56;;;;;;;5.33;3.63;;;;;;;;;;5040336;28;20242;-52
2023/04/13 04:41:23;;;;;;;4.27;3.63;;;;;;;;;;5036832;28;20228;-53
2023/04/13 04:43:50;;;;;;;4.53;3.90;;;;;;;;;;5038814;28;20697;-53
2023/04/13 04:46:17;;;;;;;5.70;4.10;;;;;;;;;;5045685;28;20749;-53
2023/04/13 04:48:46;;;;;;;6.93;3.97;;;;;;;;;;5045928;28;20236;-52
2023/04/13 04:51:12;;;;;;;4.13;3.17;;;;;;;;;;5038403;28;20228;-52
2023/04/13 04:53:39;;;;;;;4.33;3.67;;;;;;;;;;5042506;28;20315;-52
2023/04/13 04:56:08;;;;;;;5.80;3.77;;;;;;;;;;5035355;28;21233;-52
2023/04/13 04:58:35;;;;;;;4.97;4.53;;;;;;;;;;5037748;28;20244;-53
2023/04/13 05:01:02;;;;;;;10.63;4.67;;;;;;;;;;5044268;28;20308;-52
2023/04/13 05:03:29;;;;;;;5.53;4.37;;;;;;;;;;5039258;28;20262;-52
2023/04/13 05:05:55;;;;;;;6.40;4.80;;;;;;;;;;5038786;28;20248;-54
2023/04/13 05:08:22;;;;;;;4.27;3.77;;;;;;;;;;5028584;28;20662;-52
2023/04/13 05:10:49;;;;;;;5.93;4.60;;;;;;;;;;5036061;28;20229;-53
2023/04/13 05:13:17;;;;;;;7.00;4.90;;;;;;;;;;5045468;28;20239;-52
2023/04/13 05:15:44;;;;;;;7.27;5.43;;;;;;;;;;5044417;28;20240;-52
2023/04/13 05:18:14;;;;;;;5.27;4.67;;;;;;;;;;5042364;28;20232;-53
2023/04/13 05:20:41;;;;;;;6.77;4.53;;;;;;;;;;5043845;28;20247;-53
2023/04/13 05:23:08;;;;;;;5.10;4.60;;;;;;;;;;5034396;28;20237;-54
2023/04/13 05:25:35;;;;;;;6.27;5.23;;;;;;;;;;5045725;28;20258;-52
2023/04/13 05:28:01;;;;;;;6.53;5.93;;;;;;;;;;5031649;28;20316;-51
2023/04/13 05:30:31;;;;;;;7.87;6.47;;;;;;;;;;5041621;28;20615;-51
2023/04/13 05:32:58;;;;;;;7.27;5.37;;;;;;;;;;5031503;28;20239;-51
2023/04/13 05:35:26;;;;;;;8.37;6.03;;;;;;;;;;5033765;28;20770;-51
2023/04/13 05:37:53;;;;;;;7.63;6.83;;;;;;;;;;5042594;28;20244;-52
2023/04/13 05:40:20;;;;;;;8.97;7.07;;;;;;;;;;5046675;28;20239;-51
2023/04/13 05:42:46;;;;;;;11.40;7.13;;;;;;;;;;5040907;28;20319;-56
2023/04/13 05:45:15;;;;;;;7.90;6.07;;;;;;;;;;5044602;28;20246;-54
2023/04/13 05:47:44;;;;;;;11.00;6.90;;;;;;;;;;5040278;28;20234;-51
2023/04/13 05:50:11;;;;;;;11.57;6.87;;;;;;;;;;5037092;28;20773;-53
2023/04/13 05:52:38;;;;;;;7.43;6.70;;;;;;;;;;5038011;28;20336;-52
2023/04/13 05:55:05;;;;;;;7.93;6.30;;;;;;;;;;5044210;28;20235;-52
2023/04/13 05:57:32;;;;;;;7.80;6.80;;;;;;;;;;5040849;28;20293;-51
2023/04/13 05:59:58;;;;;;;8.13;6.63;;;;;;;;;;5041571;28;20259;-51
2023/04/13 06:02:25;;;;;;;7.03;5.63;;;;;;;;;;5040083;28;20228;-51
2023/04/13 06:04:53;;;;;;;7.93;6.63;;;;;;;;;;5037759;28;20232;-52
2023/04/13 06:07:20;;;;;;;6.97;5.43;;;;;;;;;;5037207;28;20917;-53
2023/04/13 06:09:46;;;;;;;8.57;4.70;;;;;;;;;;5042232;28;20231;-58
2023/04/13 06:12:14;;;;;;;5.87;4.87;;;;;;;;;;5041641;28;20316;-50
2023/04/13 06:14:41;;;;;;;5.63;5.13;;;;;;;;;;5036591;28;20230;-52
2023/04/13 06:17:08;;;;;;;7.70;5.30;;;;;;;;;;5038449;28;20244;-52
2023/04/13 06:19:34;;;;;;;5.57;4.67;;;;;;;;;;5039688;28;20263;-51
2023/04/13 06:22:02;;;;;;;5.47;4.67;;;;;;;;;;5046164;28;20668;-52
2023/04/13 06:24:29;;;;;;;7.93;4.20;;;;;;;;;;5041923;28;20228;-51
2023/04/13 06:26:55;;;;;;;4.63;3.93;;;;;;;;;;5034823;28;20232;-52
2023/04/13 06:29:22;;;;;;;6.53;5.00;;;;;;;;;;5030837;28;20232;-52
2023/04/13 06:31:49;;;;;;;6.37;4.80;;;;;;;;;;5027788;28;20389;-51
2023/04/13 06:34:15;;;;;;;9.77;5.23;;;;;;;;;;5030957;28;20514;-52
2023/04/13 06:36:42;;;;;;;5.63;4.47;;;;;;;;;;5038530;28;20247;-52
2023/04/13 06:39:12;;;;;;;17.30;5.70;;;;;;;;;;5037100;28;20437;-52
2023/04/13 06:41:39;;;;;;;7.60;4.63;;;;;;;;;;5031823;28;20231;-53
2023/04/13 06:44:05;;;;;;;14.47;5.50;;;;;;;;;;5032166;28;20238;-51
2023/04/13 06:46:32;;;;;;;5.60;4.07;;;;;;;;;;5042670;28;20239;-52
2023/04/13 06:48:59;;;;;;;3.73;3.27;;;;;;;;;;5030947;28;20437;-52
2023/04/13 06:51:26;;;;;;;4.80;3.33;;;;;;;;;;5040155;28;20224;-54
2023/04/13 06:53:53;;;;;;;4.90;3.30;;;;;;;;;;5032332;28;20228;-53
2023/04/13 06:56:21;;;;;;;4.30;3.80;;;;;;;;;;5036509;28;20247;-52
2023/04/13 06:58:48;;;;;;;4.97;4.33;;;;;;;;;;5038380;28;20310;-52
2023/04/13 07:01:15;;;;;;;3.87;3.50;;;;;;;;;;5032293;28;20881;-53
2023/04/13 07:03:42;;;;;;;4.43;3.73;;;;;;;;;;5026581;28;20220;-52
2023/04/13 07:06:09;;;;;;;5.27;3.27;;;;;;;;;;5034036;28;20233;-52
2023/04/13 07:08:36;;;;;;;5.07;3.73;;;;;;;;;;5035042;28;20239;-51
2023/04/13 07:11:02;;;;;;;3.77;3.33;;;;;;;;;;5040463;28;20255;-52
2023/04/13 07:13:30;;;;;;;4.53;3.50;;;;;;;;;;5045066;28;20246;-51
2023/04/13 07:15:56;;;;;;;5.33;3.70;;;;;;;;;;5037446;28;20311;-52
2023/04/13 07:18:23;;;;;;;4.60;3.70;;;;;;;;;;5037385;28;20254;-54
2023/04/13 07:20:49;;;;;;;5.00;3.50;;;;;;;;;;5028954;28;20319;-52
2023/04/13 07:23:16;;;;;;;3.33;3.03;;;;;;;;;;5051825;28;20232;-51
2023/04/13 07:25:43;;;;;;;2.50;2.30;;;;;;;;;;5036758;28;20307;-51
2023/04/13 07:28:10;;;;;;;3.07;2.40;;;;;;;;;;5036592;28;20240;-51
2023/04/13 07:30:42;;;;;;;7.27;2.77;;;;;;;;;;5041228;28;20238;-51
2023/04/13 07:33:09;;;;;;;4.43;2.83;;;;;;;;;;5039106;28;20231;-51
2023/04/13 07:35:36;;;;;;;3.20;2.47;;;;;;;;;;5052304;28;20247;-52
2023/04/13 07:38:02;;;;;;;6.30;3.33;;;;;;;;;;5035258;28;20370;-51
2023/04/13 07:40:29;;;;;;;3.10;2.77;;;;;;;;;;5033491;28;20228;-53
2023/04/13 07:42:56;;;;;;;7.60;3.20;;;;;;;;;;5032708;28;20234;-52
2023/04/13 07:45:23;;;;;;;4.47;3.23;;;;;;;;;;5026522;28;20267;-51
2023/04/13 07:47:52;;;;;;;3.50;3.10;;;;;;;;;;5043603;28;20254;-53
2023/04/13 07:50:19;;;;;;;8.53;2.97;;;;;;;;;;5038678;28;20695;-51
2023/04/13 07:52:45;;;;;;;3.03;2.67;;;;;;;;;;5044258;28;20308;-51
2023/04/13 07:55:12;;;;;;;5.57;2.97;;;;;;;;;;5042673;28;20251;-52
2023/04/13 07:57:39;;;;;;;3.03;2.77;;;;;;;;;;5040522;28;20784;-52
2023/04/13 08:00:06;;;;;;;2.87;2.60;;;;;;;;;;5035163;28;20236;-51
2023/04/13 08:02:32;;;;;;;3.67;2.87;;;;;;;;;;5034430;28;20307;-52
2023/04/13 08:05:00;;;;;;;5.83;3.00;;;;;;;;;;5049547;28;20310;-52
2023/04/13 08:07:28;;;;;;;3.87;2.87;;;;;;;;;;5033681;28;20312;-53
2023/04/13 08:09:55;;;;;;;5.23;3.23;;;;;;;;;;5051092;28;20236;-53
2023/04/13 08:12:21;;;;;;;5.37;2.77;;;;;;;;;;5046531;28;20319;-52
2023/04/13 08:14:48;;;;;;;4.47;2.77;;;;;;;;;;5033650;28;20254;-51
2023/04/13 08:17:14;;;;;;;3.23;2.50;;;;;;;;;;5045920;28;20242;-52
2023/04/13 08:19:41;;;;;;;5.37;3.00;;;;;;;;;;5049715;28;20228;-52
2023/04/13 08:22:09;;;;;;;2.97;2.40;;;;;;;;;;5051969;28;20632;-50
2023/04/13 08:24:35;;;;;;;3.00;2.70;;;;;;;;;;5040161;28;20247;-53
2023/04/13 08:27:02;;;;;;;6.60;3.47;;;;;;;;;;5048428;28;20232;-52
2023/04/13 08:29:29;;;;;;;3.80;3.40;;;;;;;;;;5033072;28;22420;-52
2023/04/13 08:31:56;;;;;;;2.53;2.30;;;;;;;;;;5050376;28;20319;-51
2023/04/13 08:34:23;;;;;;;3.53;2.20;;;;;;;;;;5046794;28;20259;-52
2023/04/13 08:36:49;;;;;;;3.60;2.23;;;;;;;;;;5044973;28;20231;-51
2023/04/13 08:39:17;;;;;;;3.80;2.37;;;;;;;;;;5046692;28;20238;-51
2023/04/13 08:41:45;;;;;;;4.73;1.70;;;;;;;;;;5053492;28;20252;-51
2023/04/13 08:44:12;;;;;;;2.70;1.60;;;;;;;;;;5047155;28;20322;-52
2023/04/13 08:46:39;;;;;;;12.23;8.77;;;;;;;;;;5044382;28;20235;-52
2023/04/13 08:49:07;;;;;;;2.47;1.40;;;;;;;;;;5038732;28;20366;-51
2023/04/13 08:51:34;;;;;;;1.50;1.40;;;;;;;;;;5032093;28;20331;-51
2023/04/13 08:54:01;;;;;;;2.47;1.30;;;;;;;;;;5046179;28;20309;-52
2023/04/13 08:56:30;;;;;;;2.67;1.57;;;;;;;;;;5039987;28;20236;-51
2023/04/13 08:58:58;;;;;;;2.27;1.43;;;;;;;;;;5039993;28;20343;-53
2023/04/13 09:01:25;;;;;;;1.40;0.97;;;;;;;;;;5039657;28;20319;-53
2023/04/13 09:03:54;;;;;;;4.03;1.03;;;;;;;;;;5039445;28;20496;-52
2023/04/13 09:06:24;;;;;;;0.87;0.73;;;;;;;;;;5050269;28;20640;-53
2023/04/13 09:08:51;;;;;;;1.27;1.07;;;;;;;;;;5047351;28;20838;-52
2023/04/13 09:11:17;;;;;;;3.97;0.97;;;;;;;;;;5044204;28;20304;-52
2023/04/13 09:13:50;;;;;;;3.87;0.97;;;;;;;;;;5042119;28;20228;-54
2023/04/13 09:16:17;;;;;;;3.03;1.23;;;;;;;;;;5030645;28;20695;-56
2023/04/13 09:18:50;;;;;;;3.43;1.33;;;;;;;;;;5035689;28;20235;-52
2023/04/13 09:21:16;;;;;;;1.10;0.97;;;;;;;;;;5037152;28;20256;-52
2023/04/13 09:23:52;;;;;;;5.23;1.30;;;;;;;;;;5040460;28;20231;-51
2023/04/13 09:26:19;;;;;;;1.23;1.13;;;;;;;;;;5034551;28;20319;-54
2023/04/13 09:28:46;;;;;;;2.43;0.90;;;;;;;;;;5045737;28;20228;-52
2023/04/13 09:31:14;;;;;;;2.13;1.63;;;;;;;;;;5037366;28;20232;-52
2023/04/13 09:33:44;;;;;;;1.00;0.97;;;;;;;;;;5046619;28;20315;-51
2023/04/13 09:36:11;;;;;;;4.77;1.27;;;;;;;;;;5036239;28;20227;-52
2023/04/13 09:38:37;;;;;;;2.93;1.00;;;;;;;;;;5038806;28;20239;-51
2023/04/13 09:41:04;;;;;;;2.57;1.27;;;;;;;;;;5044228;28;20270;-51
2023/04/13 09:43:34;;;;;;;3.47;1.10;;;;;;;;;;5041183;28;20236;-51
2023/04/13 09:46:01;;;;;;;3.73;1.20;;;;;;;;;;5042591;28;20228;-51
2023/04/13 09:48:29;;;;;;;3.33;1.20;;;;;;;;;;5040984;28;20236;-51
2023/04/13 09:50:59;;;;;;;2.33;1.17;;;;;;;;;;5042998;28;20234;-50
2023/04/13 09:53:26;;;;;;;5.70;1.50;;;;;;;;;;5045850;28;20227;-51
2023/04/13 09:55:57;;;;;;;1.70;1.33;;;;;;;;;;5042736;28;20227;-52
2023/04/13 09:58:23;;;;;;;7.20;5.03;;;;;;;;;;5046455;28;20270;-52
2023/04/13 10:00:50;;;;;;;2.67;1.20;;;;;;;;;;5041452;28;20234;-51
2023/04/13 10:03:17;;;;;;;1.43;0.90;;;;;;;;;;5039610;28;20316;-50
2023/04/13 10:05:46;;;;;;;2.97;1.30;;;;;;;;;;5035520;28;20282;-51
2023/04/13 10:08:12;;;;;;;4.20;0.90;;;;;;;;;;5046354;28;20239;-50
2023/04/13 10:10:39;;;;;;;1.33;0.90;;;;;;;;;;5054268;28;20299;-52
2023/04/13 10:13:07;;;;;;;2.37;1.00;;;;;;;;;;5052150;28;20243;-52
2023/04/13 10:15:41;;;;;;;1.60;1.20;;;;;;;;;;5045300;28;20227;-52
2023/04/13 10:18:12;;;;;;;0.70;0.70;;;;;;;;;;5047765;28;20607;-54
2023/04/13 10:20:39;;;;;;;2.53;2.05;;;;;;;;;;5042851;28;20224;-53
2023/04/13 10:23:07;;;;;;;7.57;4.40;;;;;;;;;;5042500;28;20235;-53
2023/04/13 10:25:35;;;;;;;1.73;0.80;;;;;;;;;;5049917;28;20292;-51
2023/04/13 10:28:01;;;;;;;5.00;3.28;;;;;;;;;;5041237;28;20236;-50
2023/04/13 10:30:28;;;;;;;1.52;0.98;;;;;;;;;;5033038;28;20228;-53
2023/04/13 10:33:02;;;;;;;1.03;1.03;;;;;;;;;;5038475;28;20231;-52
2023/04/13 10:35:28;;;;;;;1.17;1.03;;;;;;;;;;5032539;28;20239;-52
2023/04/13 10:37:56;;;;;;;2.90;1.00;;;;;;;;;;5045681;28;20264;-52
2023/04/13 10:40:24;;;;;;;1.27;1.00;;;;;;;;;;5040839;28;20231;-52
2023/04/13 10:42:51;;;;;;;1.48;0.80;;;;;;;;;;5047354;28;20747;-52
2023/04/13 10:45:19;;;;;;;7.38;5.38;;;;;;;;;;5041437;28;20241;-54
2023/04/13 10:47:45;;;;;;;1.27;1.17;;;;;;;;;;5030233;28;20290;-51
2023/04/13 10:50:16;;;;;;;1.70;1.00;;;;;;;;;;5032765;28;20235;-51
2023/04/13 10:52:42;;;;;;;2.13;1.20;;;;;;;;;;5042556;28;21187;-51
2023/04/13 10:55:10;;;;;;;6.53;4.13;;;;;;;;;;5035303;28;20675;-51
2023/04/13 10:57:38;;;;;;;2.43;1.33;;;;;;;;;;5039050;28;20251;-51
2023/04/13 11:00:20;;;;;;;10.23;5.53;;;;;;;;;;5035879;28;20225;-51
2023/04/13 11:02:46;;;;;;;1.90;1.30;;;;;;;;;;5035084;28;20234;-51
2023/04/13 11:05:15;;;;;;;3.40;2.50;;;;;;;;;;5031361;28;20274;-51
2023/04/13 11:07:44;;;;;;;0.87;0.80;;;;;;;;;;5045066;28;20258;-53
2023/04/13 11:10:10;;;;;;;6.00;1.87;;;;;;;;;;5039251;28;20309;-50
2023/04/13 11:12:38;;;;;;;3.07;1.23;;;;;;;;;;5032986;28;20307;-51
2023/04/13 11:15:05;;;;;;;1.42;1.13;;;;;;;;;;5037938;28;20431;-51
2023/04/13 11:17:31;;;;;;;3.37;2.00;;;;;;;;;;5043693;28;20234;-51
2023/04/13 11:19:58;;;;;;;2.13;1.02;;;;;;;;;;5038565;28;20322;-51
2023/04/13 11:22:27;;;;;;;4.68;0.88;;;;;;;;;;5046745;28;20323;-55
2023/04/13 11:25:05;;;;;;;4.15;2.03;;;;;;;;;;5026851;28;21049;-51
2023/04/13 11:27:31;;;;;;;2.58;1.00;;;;;;;;;;5028891;28;20231;-51
2023/04/13 11:29:59;;;;;;;1.13;0.70;;;;;;;;;;5030673;28;20227;-51
2023/04/13 11:32:26;;;;;;;3.08;1.33;;;;;;;;;;5032768;28;20239;-51
2023/04/13 11:34:53;;;;;;;2.25;1.15;;;;;;;;;;5026824;28;20233;-51
2023/04/13 11:37:19;;;;;;;1.38;0.80;;;;;;;;;;5029676;28;20673;-52
2023/04/13 11:39:46;;;;;;;1.67;1.38;;;;;;;;;;5029593;28;20241;-51
2023/04/13 11:42:12;;;;;;;1.90;0.90;;;;;;;;;;5043290;28;20232;-53
2023/04/13 11:44:41;;;;;;;3.17;1.40;;;;;;;;;;5043116;28;20282;-52
2023/04/13 11:47:12;;;;;;;3.08;0.85;;;;;;;;;;5037316;28;20264;-52
2023/04/13 11:49:40;;;;;;;4.57;1.00;;;;;;;;;;5040047;28;20236;-53
2023/04/13 11:52:06;;;;;;;2.72;1.38;;;;;;;;;;5037580;28;20231;-53
2023/04/13 11:54:33;;;;;;;4.97;2.38;;;;;;;;;;5042846;28;20311;-51
2023/04/13 11:57:00;;;;;;;3.15;0.75;;;;;;;;;;5046915;28;20240;-51
2023/04/13 11:59:27;;;;;;;1.13;0.80;;;;;;;;;;5042220;28;20232;-51
2023/04/13 12:01:54;;;;;;;2.80;1.45;;;;;;;;;;5037395;28;20756;-54
2023/04/13 12:04:22;;;;;;;2.22;1.05;;;;;;;;;;5041398;28;20231;-53
2023/04/13 12:06:48;;;;;;;1.33;0.82;;;;;;;;;;5049904;28;20325;-53
2023/04/13 12:09:14;;;;;;;3.70;1.10;;;;;;;;;;5044085;28;20334;-52
2023/04/13 12:11:41;;;;;;;1.67;1.00;;;;;;;;;;5041543;28;20863;-51
2023/04/13 12:14:08;;;;;;;4.38;0.98;;;;;;;;;;5040009;28;20239;-50
2023/04/13 12:16:34;;;;;;;1.10;0.80;;;;;;;;;;5044104;28;20231;-52
2023/04/13 12:19:07;;;;;;;7.40;1.05;;;;;;;;;;5020813;28;20247;-52
2023/04/13 12:21:35;;;;;;;2.85;1.17;;;;;;;;;;5022496;28;20459;-53
2023/04/13 12:24:02;;;;;;;2.25;1.17;;;;;;;;;;5022818;28;20744;-50
2023/04/13 12:26:31;;;;;;;1.98;1.00;;;;;;;;;;5020011;28;20611;-52
2023/04/13 12:28:58;;;;;;;3.60;1.13;;;;;;;;;;5021053;28;20706;-52
2023/04/13 12:31:24;;;;;;;1.13;0.63;;;;;;;;;;5023557;28;20598;-51
2023/04/13 12:33:51;;;;;;;2.72;1.40;;;;;;;;;;5020154;28;20318;-52
2023/04/13 12:36:17;;;;;;;1.45;0.70;;;;;;;;;;5027066;28;20413;-52
2023/04/13 12:38:45;;;;;;;2.15;1.52;;;;;;;;;;5038163;28;20231;-52
2023/04/13 12:41:11;;;;;;;1.63;1.05;;;;;;;;;;5037640;28;20316;-53
2023/04/13 12:43:37;;;;;;;5.07;1.00;;;;;;;;;;5036257;28;20263;-52
2023/04/13 12:46:04;;;;;;;1.27;0.82;;;;;;;;;;5034673;28;20236;-50
2023/04/13 12:48:30;;;;;;;1.60;1.10;;;;;;;;;;5032988;28;20259;-52
2023/04/13 12:50:57;;;;;;;1.10;0.85;;;;;;;;;;5030079;28;20708;-52
2023/04/13 12:53:23;;;;;;;2.72;0.75;;;;;;;;;;5032675;28;20227;-52
2023/04/13 12:55:51;;;;;;;3.17;0.95;;;;;;;;;;5039054;28;20716;-53
2023/04/13 12:58:17;;;;;;;1.55;1.17;;;;;;;;;;5033828;28;20246;-56
2023/04/13 13:00:44;;;;;;;2.25;1.02;;;;;;;;;;5033038;28;20243;-55
2023/04/13 13:03:10;;;;;;;1.60;1.00;;;;;;;;;;5032154;28;20314;-52
2023/04/13 13:05:37;;;;;;;1.50;0.98;;;;;;;;;;5033599;28;20310;-51
2023/04/13 13:08:03;;;;;;;2.83;0.90;;;;;;;;;;5023077;28;20631;-52
2023/04/13 13:10:29;;;;;;;2.67;0.98;;;;;;;;;;5035717;28;20365;-53
2023/04/13 13:12:59;;;;;;;2.90;0.80;;;;;;;;;;5029252;28;20639;-51
2023/04/13 13:15:25;;;;;;;1.25;0.90;;;;;;;;;;5029568;28;20239;-51
2023/04/13 13:17:52;;;;;;;2.15;0.90;;;;;;;;;;5033499;28;20228;-52
2023/04/13 13:20:18;;;;;;;1.48;0.73;;;;;;;;;;5031549;28;20828;-51
2023/04/13 13:22:44;;;;;;;2.35;0.90;;;;;;;;;;5035908;28;20318;-51
2023/04/13 13:25:11;;;;;;;4.22;0.85;;;;;;;;;;5033974;28;20792;-57
2023/04/13 13:27:38;;;;;;;2.60;1.13;;;;;;;;;;5035455;28;20338;-53
2023/04/13 13:30:07;;;;;;;1.08;0.90;;;;;;;;;;5039437;28;20586;-51
2023/04/13 13:32:34;;;;;;;1.38;0.70;;;;;;;;;;5025099;28;20252;-51
2023/04/13 13:35:01;;;;;;;1.27;1.00;;;;;;;;;;5029406;28;20327;-51
2023/04/13 13:37:27;;;;;;;1.95;0.90;;;;;;;;;;5040777;28;20228;-51
2023/04/13 13:39:54;;;;;;;1.95;1.05;;;;;;;;;;5032110;28;20769;-52
2023/04/13 13:42:20;;;;;;;1.75;1.13;;;;;;;;;;5029511;28;20235;-50
2023/04/13 13:44:46;;;;;;;2.70;1.30;;;;;;;;;;5026885;28;20225;-51
2023/04/13 13:47:14;;;;;;;1.50;0.90;;;;;;;;;;5029342;28;20734;-52
2023/04/13 13:49:41;;;;;;;1.15;1.05;;;;;;;;;;5030930;28;20238;-51
2023/04/13 13:52:07;;;;;;;4.05;1.02;;;;;;;;;;5030856;28;20741;-52
2023/04/13 13:54:33;;;;;;;1.23;1.10;;;;;;;;;;5027643;28;20235;-51
2023/04/13 13:57:00;;;;;;;3.67;1.40;;;;;;;;;;5031628;28;20240;-52
2023/04/13 13:59:27;;;;;;;1.35;0.80;;;;;;;;;;5034890;28;20717;-52
2023/04/13 14:01:53;;;;;;;4.22;1.08;;;;;;;;;;5037476;28;20240;-51
2023/04/13 14:04:21;;;;;;;3.55;1.00;;;;;;;;;;5036709;28;20767;-52
2023/04/13 14:06:48;;;;;;;1.08;0.93;;;;;;;;;;5033800;28;20236;-53
2023/04/13 14:09:15;;;;;;;2.50;1.00;;;;;;;;;;5037154;28;20322;-52
2023/04/13 14:11:41;;;;;;;2.22;0.98;;;;;;;;;;5034731;28;20242;-51
2023/04/13 14:14:08;;;;;;;2.47;1.13;;;;;;;;;;5027288;28;20239;-51
2023/04/13 14:16:34;;;;;;;0.90;0.80;;;;;;;;;;5036415;28;20235;-50
2023/04/13 14:19:01;;;;;;;4.20;1.00;;;;;;;;;;5023118;28;20247;-50
2023/04/13 14:21:30;;;;;;;1.23;0.95;;;;;;;;;;5035132;28;20660;-51
2023/04/13 14:23:56;;;;;;;2.20;1.17;;;;;;;;;;5025908;28;20863;-52
2023/04/13 14:26:23;;;;;;;1.30;0.90;;;;;;;;;;5024232;28;20235;-53
2023/04/13 14:28:50;;;;;;;3.03;1.00;;;;;;;;;;5033143;28;20687;-52
2023/04/13 14:31:16;;;;;;;1.88;0.80;;;;;;;;;;5044840;28;20701;-52
2023/04/13 14:33:42;;;;;;;5.75;0.77;;;;;;;;;;5038530;28;20335;-53
2023/04/13 14:36:09;;;;;;;1.70;0.88;;;;;;;;;;5034988;28;20228;-51
2023/04/13 14:38:37;;;;;;;1.48;1.13;;;;;;;;;;5023221;28;20236;-51
2023/04/13 14:41:04;;;;;;;2.45;0.75;;;;;;;;;;5021490;28;20234;-51
2023/04/13 14:43:30;;;;;;;1.48;1.33;;;;;;;;;;5030772;28;20663;-53